Time;durP1;ratioP1;P1;durP2;ratioP2;P2;SDS_P1;SDS_P2;PMS_P1;PMS_P2;Temp;Humidity;BMP_temperature;BMP_pressure;BME280_temperature;BME280_humidity;BME280_pressure;Samples;Min_cycle;Max_cycle;Signal;HPM_P1;HPM_P2
2023/08/28 00:05:03;;;;;;;1.07;0.97;;;22.60;88.20;;;;;;5058935;28;20170;0
2023/08/28 00:07:32;;;;;;;2.23;1.10;;;22.60;88.30;;;;;;5058762;28;20171;0
2023/08/28 00:09:57;;;;;;;1.57;1.33;;;22.60;88.20;;;;;;5074729;28;20178;0
2023/08/28 00:12:23;;;;;;;2.13;1.00;;;22.60;88.20;;;;;;5058775;28;20172;0
2023/08/28 00:14:56;;;;;;;2.10;1.13;;;22.60;88.10;;;;;;5074498;28;20267;0
2023/08/28 00:17:22;;;;;;;2.80;1.00;;;22.60;88.20;;;;;;5075128;28;20184;0
2023/08/28 00:19:47;;;;;;;1.10;1.00;;;22.60;88.40;;;;;;5058548;28;20176;0
2023/08/28 00:22:13;;;;;;;1.60;1.10;;;22.60;88.30;;;;;;5058371;28;20191;0
2023/08/28 00:24:41;;;;;;;1.77;1.13;;;22.60;88.30;;;;;;5074458;28;20237;0
2023/08/28 00:27:10;;;;;;;1.50;1.10;;;22.60;88.30;;;;;;5057247;28;20171;0
2023/08/28 00:29:38;;;;;;;2.23;1.10;;;22.60;88.30;;;;;;5057458;28;20196;0
2023/08/28 00:32:07;;;;;;;1.70;0.90;;;22.60;88.30;;;;;;5057257;28;20164;0
2023/08/28 00:34:33;;;;;;;1.47;1.10;;;22.60;88.10;;;;;;5057767;28;20211;0
2023/08/28 00:36:58;;;;;;;3.00;1.20;;;22.50;88.20;;;;;;5057221;28;20226;0
2023/08/28 00:39:34;;;;;;;1.27;1.10;;;22.50;88.30;;;;;;5073595;28;20172;0
2023/08/28 00:41:59;;;;;;;1.87;1.00;;;22.50;88.30;;;;;;5057929;28;20192;0
2023/08/28 00:44:25;;;;;;;1.17;0.90;;;22.50;88.40;;;;;;5056965;28;20173;0
2023/08/28 00:46:51;;;;;;;2.23;1.00;;;22.50;88.30;;;;;;5057415;28;20173;0
2023/08/28 00:49:19;;;;;;;2.37;1.27;;;22.50;88.30;;;;;;5058590;28;20210;0
2023/08/28 00:51:48;;;;;;;1.37;1.00;;;22.50;88.20;;;;;;5057390;28;20277;0
2023/08/28 00:54:13;;;;;;;1.00;0.90;;;22.50;89.00;;;;;;5057975;28;20230;0
2023/08/28 00:56:41;;;;;;;1.43;1.00;;;22.50;88.20;;;;;;5057768;28;20160;0
2023/08/28 00:59:15;;;;;;;1.67;0.90;;;22.40;88.30;;;;;;5057903;28;20177;0
2023/08/28 01:01:40;;;;;;;1.93;1.00;;;22.40;88.30;;;;;;5058149;28;20220;0
2023/08/28 01:04:06;;;;;;;1.50;0.90;;;22.40;88.40;;;;;;5057320;28;20172;0
2023/08/28 01:06:59;;;;;;;1.30;1.10;;;22.40;88.50;;;;;;5057481;28;20217;0
2023/08/28 01:09:29;;;;;;;1.83;1.00;;;22.40;88.50;;;;;;5056170;28;20442;0
2023/08/28 01:12:15;;;;;;;0.87;0.87;;;22.40;88.60;;;;;;5056791;28;20263;0
2023/08/28 01:15:20;;;;;;;1.77;1.07;;;22.40;88.50;;;;;;5056681;28;20510;0
2023/08/28 01:17:54;;;;;;;1.53;0.90;;;22.40;88.40;;;;;;5036593;28;20196;0
2023/08/28 01:20:21;;;;;;;1.20;1.10;;;22.40;88.20;;;;;;5037360;28;20261;0
2023/08/28 01:23:12;;;;;;;1.37;1.20;;;22.40;88.30;;;;;;5052208;28;20250;0
2023/08/28 01:25:39;;;;;;;1.17;0.90;;;22.40;88.20;;;;;;5054765;28;20172;0
2023/08/28 01:28:07;;;;;;;1.67;1.10;;;22.40;88.20;;;;;;5055399;28;20691;0
2023/08/28 01:30:36;;;;;;;1.00;0.80;;;22.40;88.40;;;;;;5056357;28;20202;0
2023/08/28 01:33:03;;;;;;;0.90;0.90;;;22.40;88.40;;;;;;5056472;28;20336;0
2023/08/28 01:35:31;;;;;;;1.53;0.97;;;22.30;88.30;;;;;;5054524;28;20230;0
2023/08/28 01:38:12;;;;;;;1.10;0.90;;;22.30;88.40;;;;;;5072588;28;20203;0
2023/08/28 01:40:47;;;;;;;1.20;1.10;;;22.30;88.30;;;;;;5056247;28;20148;0
2023/08/28 01:43:23;;;;;;;0.90;0.90;;;22.30;88.30;;;;;;5072408;28;20226;0
2023/08/28 01:45:53;;;;;;;0.80;0.80;;;22.30;88.20;;;;;;5055691;28;20176;0
2023/08/28 01:48:19;;;;;;;1.10;0.80;;;22.30;88.20;;;;;;5055571;28;20211;0
2023/08/28 01:50:47;;;;;;;1.10;1.00;;;22.30;88.00;;;;;;5072175;28;20199;0
2023/08/28 01:53:13;;;;;;;1.00;0.90;;;22.30;88.00;;;;;;5056974;28;20569;-1
2023/08/28 01:56:10;;;;;;;0.80;0.80;;;22.30;88.10;;;;;;5056513;28;20262;0
2023/08/28 01:58:38;;;;;;;0.93;0.83;;;22.20;88.10;;;;;;5072115;28;20172;-1
2023/08/28 02:01:03;;;;;;;1.10;0.90;;;22.30;88.10;;;;;;5056144;28;20588;0
2023/08/28 02:03:30;;;;;;;2.13;0.80;;;22.20;88.00;;;;;;5071801;28;20220;0
2023/08/28 02:05:56;;;;;;;1.03;0.80;;;22.20;88.20;;;;;;5056360;28;20164;0
2023/08/28 02:08:22;;;;;;;1.00;0.90;;;22.20;88.00;;;;;;5056527;28;20168;0
2023/08/28 02:10:47;;;;;;;1.00;0.90;;;22.20;88.10;;;;;;5056219;28;20246;0
2023/08/28 02:13:13;;;;;;;1.27;0.90;;;22.20;88.10;;;;;;5055251;28;20446;-1
2023/08/28 02:15:39;;;;;;;1.03;0.80;;;22.20;88.20;;;;;;5055794;28;20589;0
2023/08/28 02:18:06;;;;;;;1.93;0.90;;;22.20;88.40;;;;;;5056446;28;20176;0
2023/08/28 02:20:32;;;;;;;0.87;0.80;;;22.20;88.30;;;;;;5072527;28;20185;0
2023/08/28 02:22:58;;;;;;;1.13;1.00;;;22.20;88.30;;;;;;5055735;28;20208;0
2023/08/28 02:25:23;;;;;;;1.07;0.80;;;22.10;88.30;;;;;;5072418;28;20243;0
2023/08/28 02:27:49;;;;;;;0.70;0.70;;;22.20;88.30;;;;;;5056508;28;20208;0
2023/08/28 02:30:17;;;;;;;1.37;1.10;;;22.10;88.10;;;;;;5056548;28;20211;0
2023/08/28 02:32:43;;;;;;;1.00;0.90;;;22.10;88.10;;;;;;5056267;28;20199;-1
2023/08/28 02:35:09;;;;;;;1.67;0.80;;;22.10;88.00;;;;;;5072400;28;20195;0
2023/08/28 02:37:35;;;;;;;1.40;0.90;;;22.10;88.30;;;;;;5072601;28;20200;0
2023/08/28 02:40:01;;;;;;;0.90;0.90;;;22.10;88.20;;;;;;5056235;28;20269;0
2023/08/28 02:42:26;;;;;;;0.70;0.70;;;22.10;88.10;;;;;;5056260;28;20603;0
2023/08/28 02:44:52;;;;;;;1.13;0.80;;;22.10;88.30;;;;;;5071870;28;20727;0
2023/08/28 02:47:18;;;;;;;0.70;0.70;;;22.10;88.00;;;;;;5072401;28;20412;0
2023/08/28 02:49:47;;;;;;;0.93;0.90;;;22.10;88.10;;;;;;5056133;28;20261;0
2023/08/28 02:52:12;;;;;;;0.80;0.80;;;22.10;88.10;;;;;;5056136;28;20225;0
2023/08/28 02:54:38;;;;;;;0.80;0.80;;;22.00;88.00;;;;;;5055890;28;20184;0
2023/08/28 02:57:04;;;;;;;0.70;0.70;;;22.10;87.80;;;;;;5057004;28;20566;0
2023/08/28 02:59:39;;;;;;;1.50;0.83;;;22.10;87.90;;;;;;5059843;28;20266;0
2023/08/28 03:02:08;;;;;;;1.13;0.80;;;22.00;87.90;;;;;;5059238;28;20200;0
2023/08/28 03:04:36;;;;;;;1.20;0.80;;;22.00;87.90;;;;;;5059769;28;20243;0
2023/08/28 03:07:02;;;;;;;1.00;0.90;;;22.00;88.00;;;;;;5075089;28;20211;0
2023/08/28 03:09:31;;;;;;;0.80;0.80;;;22.00;87.90;;;;;;5058392;28;20574;0
2023/08/28 03:11:57;;;;;;;1.20;0.90;;;22.00;87.90;;;;;;5059076;28;20183;-1
2023/08/28 03:14:22;;;;;;;0.83;0.80;;;22.00;87.90;;;;;;5058784;28;20184;-1
2023/08/28 03:16:48;;;;;;;0.97;0.80;;;22.00;88.00;;;;;;5075136;28;20165;0
2023/08/28 03:19:14;;;;;;;1.33;1.00;;;22.00;88.00;;;;;;5059282;28;20276;0
2023/08/28 03:21:43;;;;;;;1.23;0.90;;;22.00;88.10;;;;;;5059025;28;20180;0
2023/08/28 03:24:11;;;;;;;1.77;0.97;;;21.90;88.00;;;;;;5058957;28;20767;0
2023/08/28 03:26:37;;;;;;;1.20;1.00;;;22.00;88.00;;;;;;5058183;28;20229;0
2023/08/28 03:29:22;;;;;;;0.87;0.87;;;21.90;88.00;;;;;;5058863;28;20181;-1
2023/08/28 03:31:49;;;;;;;1.73;1.00;;;21.90;88.10;;;;;;5059255;28;20190;0
2023/08/28 03:34:15;;;;;;;1.23;0.90;;;21.90;88.10;;;;;;5058464;28;20194;0
2023/08/28 03:36:41;;;;;;;1.47;0.90;;;21.90;88.30;;;;;;5058438;28;20172;0
2023/08/28 03:39:09;;;;;;;0.60;0.60;;;21.90;88.30;;;;;;5058303;28;20194;0
2023/08/28 03:41:34;;;;;;;1.00;0.90;;;21.80;88.20;;;;;;5059380;28;20511;0
2023/08/28 03:44:00;;;;;;;0.80;0.80;;;21.80;88.20;;;;;;5058896;28;20209;0
2023/08/28 03:46:26;;;;;;;0.80;0.80;;;21.80;88.10;;;;;;5058576;28;20475;-1
2023/08/28 03:48:54;;;;;;;1.00;0.90;;;21.90;88.20;;;;;;5057884;28;20314;0
2023/08/28 03:51:19;;;;;;;1.10;0.97;;;21.80;88.20;;;;;;5059217;28;20221;0
2023/08/28 03:53:45;;;;;;;0.83;0.83;;;21.80;88.10;;;;;;5058633;28;20269;0
2023/08/28 03:56:11;;;;;;;0.90;0.90;;;21.80;88.00;;;;;;5058658;28;20188;0
2023/08/28 03:58:37;;;;;;;1.30;0.87;;;21.80;88.10;;;;;;5059703;28;20220;0
2023/08/28 04:01:03;;;;;;;0.70;0.70;;;21.90;88.00;;;;;;5058021;28;20207;0
2023/08/28 04:03:29;;;;;;;1.20;1.00;;;21.80;88.10;;;;;;5058252;28;20294;-1
2023/08/28 04:06:01;;;;;;;0.77;0.77;;;21.80;87.90;;;;;;5057325;28;20759;0
2023/08/28 04:08:29;;;;;;;1.50;0.70;;;21.80;87.90;;;;;;5057909;28;20229;0
2023/08/28 04:10:58;;;;;;;1.00;0.80;;;21.80;87.90;;;;;;5058404;28;20176;0
2023/08/28 04:13:25;;;;;;;0.87;0.80;;;21.80;87.80;;;;;;5058190;28;20176;0
2023/08/28 04:15:51;;;;;;;1.73;1.00;;;21.80;87.90;;;;;;5058113;28;20291;0
2023/08/28 04:18:19;;;;;;;1.03;0.80;;;21.80;88.10;;;;;;5057837;28;20273;0
2023/08/28 04:20:45;;;;;;;0.70;0.70;;;21.80;87.90;;;;;;5057368;28;20195;0
2023/08/28 04:23:12;;;;;;;1.03;0.77;;;21.80;87.80;;;;;;5056710;28;20513;0
2023/08/28 04:25:38;;;;;;;1.17;0.57;;;21.70;87.80;;;;;;5056718;28;20259;0
2023/08/28 04:28:04;;;;;;;1.10;0.90;;;21.80;87.90;;;;;;5057406;28;20344;0
2023/08/28 04:30:29;;;;;;;0.80;0.80;;;21.80;87.90;;;;;;5057367;28;20240;0
2023/08/28 04:33:00;;;;;;;1.47;0.80;;;21.70;88.00;;;;;;5057646;28;20172;0
2023/08/28 04:35:28;;;;;;;0.80;0.80;;;21.70;88.00;;;;;;5058628;28;20270;0
2023/08/28 04:37:54;;;;;;;0.80;0.80;;;21.70;88.00;;;;;;5058470;28;20164;0
2023/08/28 04:40:20;;;;;;;1.53;0.80;;;21.70;87.90;;;;;;5058088;28;20189;0
2023/08/28 04:42:46;;;;;;;0.80;0.80;;;21.70;87.80;;;;;;5057963;28;20221;0
2023/08/28 04:45:12;;;;;;;0.70;0.70;;;21.70;87.80;;;;;;5073823;28;20180;0
2023/08/28 04:47:38;;;;;;;1.20;1.00;;;21.70;87.80;;;;;;5073649;28;20269;0
2023/08/28 04:50:04;;;;;;;1.07;0.80;;;21.70;87.80;;;;;;5073488;28;20184;0
2023/08/28 04:52:31;;;;;;;0.77;0.77;;;21.70;87.90;;;;;;5072222;28;20190;0
2023/08/28 04:54:56;;;;;;;1.77;0.80;;;21.60;88.00;;;;;;5056820;28;20168;0
2023/08/28 04:57:25;;;;;;;0.80;0.80;;;21.70;87.90;;;;;;5056944;28;20196;0
2023/08/28 04:59:53;;;;;;;1.43;0.90;;;21.60;87.80;;;;;;5056762;28;20247;0
2023/08/28 05:02:21;;;;;;;0.80;0.80;;;21.60;87.80;;;;;;5054622;28;20321;0
2023/08/28 05:04:47;;;;;;;1.60;0.80;;;21.70;87.80;;;;;;5056331;28;20256;0
2023/08/28 05:07:12;;;;;;;2.03;0.70;;;21.70;87.80;;;;;;5072076;28;20279;0
2023/08/28 05:09:41;;;;;;;1.03;0.80;;;21.70;88.10;;;;;;5056634;28;20209;0
2023/08/28 05:12:13;;;;;;;0.80;0.80;;;21.70;88.40;;;;;;5056174;28;20288;0
2023/08/28 05:14:42;;;;;;;1.27;0.80;;;21.70;88.30;;;;;;5072359;28;20183;0
2023/08/28 05:17:10;;;;;;;1.37;0.70;;;21.70;88.40;;;;;;5056023;28;20184;0
2023/08/28 05:19:36;;;;;;;1.27;0.90;;;21.70;88.60;;;;;;5055444;28;20179;0
2023/08/28 05:22:02;;;;;;;1.60;1.03;;;21.70;88.80;;;;;;5054980;28;20200;-1
2023/08/28 05:24:30;;;;;;;1.17;0.80;;;21.70;89.00;;;;;;5055960;28;20274;-1
2023/08/28 05:26:59;;;;;;;2.77;0.80;;;21.70;89.10;;;;;;5055110;28;20172;0
2023/08/28 05:29:24;;;;;;;1.00;0.90;;;21.70;89.20;;;;;;5056558;28;20164;0
2023/08/28 05:31:53;;;;;;;1.90;0.80;;;21.70;89.10;;;;;;5054120;28;20194;0
2023/08/28 05:34:19;;;;;;;1.10;1.00;;;21.70;89.20;;;;;;5054251;28;20225;0
2023/08/28 05:36:44;;;;;;;0.80;0.80;;;21.70;89.40;;;;;;5068536;28;20535;0
2023/08/28 05:39:10;;;;;;;2.57;0.90;;;21.70;89.30;;;;;;5033980;28;20175;0
2023/08/28 05:41:36;;;;;;;2.10;1.00;;;21.70;89.20;;;;;;5050924;28;20591;0
2023/08/28 05:44:04;;;;;;;2.73;1.10;;;21.70;89.10;;;;;;5032781;28;20204;0
2023/08/28 05:46:32;;;;;;;1.53;1.10;;;21.70;89.20;;;;;;5049979;28;20185;-2
2023/08/28 05:48:58;;;;;;;1.60;1.10;;;21.80;89.10;;;;;;5033674;28;20173;0
2023/08/28 05:51:27;;;;;;;1.40;1.00;;;21.80;88.70;;;;;;5052875;28;20264;0
2023/08/28 05:53:52;;;;;;;1.80;1.10;;;21.90;88.20;;;;;;5052507;28;20175;-1
2023/08/28 05:56:18;;;;;;;1.27;1.03;;;21.90;87.90;;;;;;5054106;28;20190;-1
2023/08/28 05:58:46;;;;;;;2.07;1.30;;;21.90;87.60;;;;;;5054472;28;20166;-1
2023/08/28 06:01:14;;;;;;;2.57;1.40;;;21.90;87.60;;;;;;5053926;28;20233;-1
2023/08/28 06:03:55;;;;;;;2.50;1.30;;;21.90;87.20;;;;;;5054208;28;20227;-1
2023/08/28 06:06:24;;;;;;;1.90;1.50;;;21.90;87.30;;;;;;5054071;28;20861;0
2023/08/28 06:08:52;;;;;;;1.40;1.20;;;21.90;87.10;;;;;;5052615;28;20561;-1
2023/08/28 06:11:26;;;;;;;3.10;1.50;;;21.90;87.30;;;;;;5069136;28;20635;-1
2023/08/28 06:13:52;;;;;;;2.90;1.40;;;21.90;87.20;;;;;;5053574;28;20175;0
2023/08/28 06:16:20;;;;;;;2.73;1.40;;;21.90;87.30;;;;;;5054054;28;20169;-1
2023/08/28 06:18:48;;;;;;;4.50;1.40;;;21.90;87.30;;;;;;5070020;28;20234;-1
2023/08/28 06:21:23;;;;;;;2.63;1.90;;;21.90;87.10;;;;;;5053490;28;20513;-1
2023/08/28 06:23:49;;;;;;;3.20;1.70;;;21.90;87.30;;;;;;5070676;28;20215;-1
2023/08/28 06:26:18;;;;;;;2.10;1.50;;;21.70;87.80;;;;;;5053362;28;20220;-1
2023/08/28 06:28:43;;;;;;;2.30;1.50;;;21.70;88.20;;;;;;5054082;28;20300;-1
2023/08/28 06:31:09;;;;;;;2.70;1.53;;;21.70;88.40;;;;;;5052945;28;20801;0
2023/08/28 06:33:35;;;;;;;2.03;1.70;;;21.70;88.50;;;;;;5073248;28;20188;-1
2023/08/28 06:36:00;;;;;;;2.03;1.47;;;21.70;88.50;;;;;;5057439;28;20176;-1
2023/08/28 06:38:26;;;;;;;2.00;1.50;;;21.70;88.30;;;;;;5073081;28;20250;0
2023/08/28 06:41:00;;;;;;;3.47;1.60;;;21.70;88.10;;;;;;5072918;28;20263;0
2023/08/28 06:43:28;;;;;;;3.60;1.70;;;21.70;88.00;;;;;;5073152;28;20450;-1
2023/08/28 06:45:54;;;;;;;3.30;1.67;;;21.80;88.10;;;;;;5072678;28;20183;-1
2023/08/28 06:48:22;;;;;;;2.03;1.50;;;21.80;87.90;;;;;;5056230;28;20168;-1
2023/08/28 06:50:57;;;;;;;2.10;1.70;;;21.80;87.70;;;;;;5055806;28;20182;-1
2023/08/28 06:53:23;;;;;;;3.10;1.60;;;21.80;87.60;;;;;;5057782;28;20631;-1
2023/08/28 06:55:49;;;;;;;2.60;1.70;;;21.90;87.40;;;;;;5072424;28;20774;-1
2023/08/28 06:58:15;;;;;;;3.67;1.43;;;21.90;87.20;;;;;;5073686;28;20176;-1
2023/08/28 07:00:46;;;;;;;2.50;1.70;;;22.00;87.00;;;;;;5056181;28;20172;-1
2023/08/28 07:03:11;;;;;;;3.07;1.77;;;22.00;86.70;;;;;;5058011;28;20588;-1
2023/08/28 07:05:37;;;;;;;4.67;1.87;;;22.10;86.40;;;;;;5057402;28;20614;-1
2023/08/28 07:08:05;;;;;;;3.10;1.70;;;22.10;86.20;;;;;;5057140;28;20740;-1
2023/08/28 07:10:32;;;;;;;2.83;1.83;;;22.20;85.80;;;;;;5056283;28;20232;-1
2023/08/28 07:12:57;;;;;;;2.33;1.83;;;22.20;85.50;;;;;;5056417;28;20176;-1
2023/08/28 07:15:29;;;;;;;3.27;1.70;;;22.20;85.30;;;;;;5071326;28;20194;-1
2023/08/28 07:17:54;;;;;;;3.73;1.70;;;22.30;85.30;;;;;;5057781;28;20161;-1
2023/08/28 07:20:29;;;;;;;4.03;1.60;;;22.30;85.00;;;;;;5056028;28;20180;-1
2023/08/28 07:22:55;;;;;;;3.77;2.07;;;22.40;84.60;;;;;;5072853;28;20479;-1
2023/08/28 07:25:23;;;;;;;3.70;1.90;;;22.40;84.40;;;;;;5057458;28;20448;-1
2023/08/28 07:27:50;;;;;;;3.00;1.80;;;22.50;84.00;;;;;;5066781;28;20168;-1
2023/08/28 07:30:19;;;;;;;2.70;1.90;;;22.60;83.50;;;;;;5056233;28;20164;-1
2023/08/28 07:32:48;;;;;;;3.30;1.90;;;22.70;82.80;;;;;;5072202;28;20399;-1
2023/08/28 07:35:13;;;;;;;3.23;2.10;;;22.80;82.20;;;;;;5055994;28;20192;-1
2023/08/28 07:37:40;;;;;;;3.03;2.00;;;22.80;81.60;;;;;;5056324;28;20503;-1
2023/08/28 07:40:12;;;;;;;3.33;1.90;;;22.90;81.10;;;;;;5056779;28;20236;-1
2023/08/28 07:42:37;;;;;;;4.03;2.03;;;23.10;80.60;;;;;;5055394;28;20295;-1
2023/08/28 07:45:04;;;;;;;3.97;2.07;;;23.20;79.80;;;;;;5055933;28;20267;-1
2023/08/28 07:47:32;;;;;;;3.53;2.23;;;23.40;78.50;;;;;;5056557;28;20798;-1
2023/08/28 07:49:58;;;;;;;3.13;2.17;;;23.60;77.20;;;;;;5056699;28;20269;-1
2023/08/28 07:52:23;;;;;;;3.77;2.30;;;23.70;76.10;;;;;;5072452;28;20230;-1
2023/08/28 07:54:49;;;;;;;2.87;2.07;;;23.90;75.80;;;;;;5056503;28;20473;-1
2023/08/28 07:57:22;;;;;;;4.03;2.47;;;24.00;74.40;;;;;;5056160;28;20672;-1
2023/08/28 07:59:56;;;;;;;3.73;2.13;;;24.00;74.20;;;;;;5055320;28;20793;-1
2023/08/28 08:02:24;;;;;;;2.87;2.50;;;24.10;73.50;;;;;;5055470;28;20576;-1
2023/08/28 08:04:50;;;;;;;3.03;2.27;;;24.30;73.00;;;;;;5056309;28;20448;-1
2023/08/28 08:07:16;;;;;;;3.43;2.23;;;24.40;72.20;;;;;;5071911;28;20353;-1
2023/08/28 08:09:51;;;;;;;2.50;2.10;;;24.60;71.30;;;;;;5055488;28;20172;-1
2023/08/28 08:12:16;;;;;;;3.75;2.45;;;24.80;70.70;;;;;;5055353;28;20203;-1
2023/08/28 08:14:42;;;;;;;3.30;2.30;;;24.90;70.00;;;;;;5054851;28;20484;-1
2023/08/28 08:17:09;;;;;;;3.83;2.40;;;25.00;69.10;;;;;;5054768;28;20441;-1
2023/08/28 08:19:35;;;;;;;3.80;2.50;;;25.20;68.40;;;;;;5033356;28;20260;-1
2023/08/28 08:22:02;;;;;;;3.85;2.47;;;24.90;68.70;;;;;;5034920;28;20209;-1
2023/08/28 08:24:27;;;;;;;4.17;3.10;;;24.90;69.00;;;;;;5046630;28;20192;-1
2023/08/28 08:26:56;;;;;;;3.27;2.47;;;24.90;69.30;;;;;;5054094;28;20761;-1
2023/08/28 08:29:24;;;;;;;3.30;2.70;;;25.00;68.70;;;;;;5054814;28;20171;-1
2023/08/28 08:31:51;;;;;;;3.05;2.50;;;25.10;68.30;;;;;;5055063;28;20183;-1
2023/08/28 08:34:19;;;;;;;3.75;2.65;;;25.20;68.20;;;;;;5070417;28;20237;-1
2023/08/28 08:36:45;;;;;;;5.25;2.58;;;25.40;67.10;;;;;;5054795;28;20709;-1
2023/08/28 08:39:14;;;;;;;3.40;2.65;;;25.30;66.90;;;;;;5054974;28;20172;-1
2023/08/28 08:41:41;;;;;;;4.45;2.63;;;25.10;68.40;;;;;;5055487;28;20168;-1
2023/08/28 08:44:10;;;;;;;5.40;2.55;;;24.90;71.00;;;;;;5055205;28;20164;-1
2023/08/28 08:46:44;;;;;;;6.45;2.65;;;25.00;70.90;;;;;;5071439;28;20183;-1
2023/08/28 08:49:15;;;;;;;11.88;3.08;;;25.30;70.30;;;;;;5055149;28;20763;-1
2023/08/28 08:51:45;;;;;;;4.75;2.50;;;25.60;69.50;;;;;;5055098;28;20169;-1
2023/08/28 08:54:24;;;;;;;4.43;3.05;;;25.90;69.10;;;;;;5054452;28;20169;-1
2023/08/28 08:57:00;;;;;;;5.25;2.38;;;25.90;68.50;;;;;;5071346;28;20178;-1
2023/08/28 08:59:26;;;;;;;4.40;2.08;;;25.90;68.40;;;;;;5055483;28;20168;-1
2023/08/28 09:01:53;;;;;;;4.13;2.55;;;26.20;67.50;;;;;;5071330;28;20283;-1
2023/08/28 09:04:19;;;;;;;4.65;2.28;;;26.00;67.40;;;;;;5055485;28;20636;-1
2023/08/28 09:06:47;;;;;;;4.35;2.40;;;25.80;68.00;;;;;;5056241;28;20179;-1
2023/08/28 09:09:16;;;;;;;4.75;2.10;;;25.60;69.10;;;;;;5054789;28;20172;-1
2023/08/28 09:11:45;;;;;;;3.13;2.05;;;25.30;70.00;;;;;;5054947;28;20218;-1
2023/08/28 09:14:14;;;;;;;3.67;2.13;;;25.10;71.20;;;;;;5055566;28;20178;-1
2023/08/28 09:16:39;;;;;;;3.53;2.03;;;25.00;71.70;;;;;;5056682;28;20165;-1
2023/08/28 09:19:09;;;;;;;3.73;2.10;;;25.10;71.50;;;;;;5055020;28;20176;-1
2023/08/28 09:21:36;;;;;;;2.07;1.70;;;25.30;70.70;;;;;;5053695;28;20164;-1
2023/08/28 09:24:09;;;;;;;2.70;1.80;;;25.40;70.40;;;;;;5054938;28;20247;-1
2023/08/28 09:26:56;;;;;;;3.72;1.70;;;25.70;69.20;;;;;;5054965;28;20161;-1
2023/08/28 09:29:23;;;;;;;2.70;1.88;;;25.70;68.30;;;;;;5053526;28;20443;-1
2023/08/28 09:31:51;;;;;;;3.10;1.77;;;25.80;68.10;;;;;;5053061;28;20442;-1
2023/08/28 09:34:20;;;;;;;2.47;1.52;;;25.70;67.80;;;;;;5068711;28;20194;-1
2023/08/28 09:36:47;;;;;;;2.47;1.83;;;25.60;68.30;;;;;;5069111;28;20249;-1
2023/08/28 09:39:13;;;;;;;3.83;1.63;;;25.30;68.70;;;;;;5052057;28;20164;-1
2023/08/28 09:41:43;;;;;;;2.27;1.67;;;25.20;69.40;;;;;;5053479;28;20171;-1
2023/08/28 09:44:10;;;;;;;1.97;1.50;;;25.00;70.10;;;;;;5053024;28;20177;-1
2023/08/28 09:46:36;;;;;;;2.37;1.67;;;25.00;70.60;;;;;;5070795;28;20266;-1
2023/08/28 09:49:03;;;;;;;2.70;1.80;;;24.90;71.00;;;;;;5054087;28;20470;-1
2023/08/28 09:51:42;;;;;;;1.57;1.40;;;24.90;71.30;;;;;;5052386;28;20169;-1
2023/08/28 09:54:09;;;;;;;2.80;1.70;;;24.70;71.70;;;;;;5054675;28;20782;-1
2023/08/28 09:56:36;;;;;;;2.67;1.70;;;24.70;72.40;;;;;;5054541;28;20159;-1
2023/08/28 09:59:03;;;;;;;2.23;1.77;;;24.50;73.00;;;;;;5054624;28;20824;-1
2023/08/28 10:01:37;;;;;;;2.10;1.60;;;24.50;73.20;;;;;;5054281;28;20183;-1
2023/08/28 10:04:09;;;;;;;2.33;1.80;;;24.40;73.70;;;;;;5054579;28;20214;-1
2023/08/28 10:06:58;;;;;;;2.37;1.80;;;24.50;73.60;;;;;;5056610;28;20164;-1
2023/08/28 10:09:26;;;;;;;1.67;1.47;;;24.60;73.30;;;;;;5048540;28;20778;-1
2023/08/28 10:11:53;;;;;;;2.33;1.73;;;24.60;73.30;;;;;;5057488;28;20172;-1
2023/08/28 10:14:26;;;;;;;3.57;1.80;;;24.60;73.50;;;;;;5059100;28;20451;-1
2023/08/28 10:17:02;;;;;;;3.17;1.80;;;24.50;73.40;;;;;;5057420;28;20731;-1
2023/08/28 10:19:55;;;;;;;2.43;1.73;;;24.50;73.50;;;;;;5058495;28;20559;-1
2023/08/28 10:22:22;;;;;;;2.57;2.13;;;24.50;73.70;;;;;;5051977;28;20204;-1
2023/08/28 10:24:49;;;;;;;1.87;1.67;;;24.50;73.60;;;;;;5057518;28;20164;-1
2023/08/28 10:27:16;;;;;;;3.40;1.90;;;24.50;73.70;;;;;;5057353;28;20168;-1
2023/08/28 10:29:45;;;;;;;4.03;2.10;;;24.50;73.90;;;;;;5057505;28;20217;-1
2023/08/28 10:32:11;;;;;;;2.30;1.87;;;24.40;74.00;;;;;;5056606;28;20208;-1
2023/08/28 10:34:39;;;;;;;2.20;1.90;;;24.40;73.80;;;;;;5072579;28;20276;-1
2023/08/28 10:37:11;;;;;;;3.13;2.17;;;24.30;74.00;;;;;;5057066;28;20168;-1
2023/08/28 10:39:45;;;;;;;2.90;2.00;;;24.20;74.30;;;;;;5073177;28;20588;-1
2023/08/28 10:42:20;;;;;;;2.70;2.13;;;24.30;74.50;;;;;;5056292;28;20199;-1
2023/08/28 10:44:47;;;;;;;2.37;2.00;;;24.30;74.50;;;;;;5056669;28;20148;-1
2023/08/28 10:47:18;;;;;;;3.87;2.07;;;24.30;74.50;;;;;;5073459;28;20168;-1
2023/08/28 10:49:44;;;;;;;3.50;2.30;;;24.30;74.40;;;;;;5073774;28;20156;-1
2023/08/28 10:52:09;;;;;;;2.83;2.10;;;24.40;74.20;;;;;;5073393;28;20183;-1
2023/08/28 10:54:37;;;;;;;2.87;2.30;;;24.40;74.10;;;;;;5057428;28;20267;-1
2023/08/28 10:57:06;;;;;;;2.30;2.10;;;24.40;74.20;;;;;;5072263;28;20681;-1
2023/08/28 10:59:44;;;;;;;2.60;2.27;;;24.40;73.80;;;;;;5056966;28;20566;-1
2023/08/28 11:02:11;;;;;;;2.73;2.30;;;24.40;73.90;;;;;;5057009;28;20223;-1
2023/08/28 11:04:39;;;;;;;2.57;2.00;;;24.40;74.10;;;;;;5054766;28;20199;-1
2023/08/28 11:07:11;;;;;;;2.60;2.30;;;24.40;73.90;;;;;;5035834;28;20172;-1
2023/08/28 11:09:37;;;;;;;2.83;2.10;;;24.40;74.20;;;;;;5037145;28;20246;-1
2023/08/28 11:12:03;;;;;;;2.90;2.50;;;24.30;74.30;;;;;;5035075;28;20192;-1
2023/08/28 11:14:34;;;;;;;2.87;2.37;;;24.20;74.30;;;;;;5036681;28;20166;-1
2023/08/28 11:17:17;;;;;;;2.50;2.30;;;24.30;74.50;;;;;;5051997;28;20756;-1
2023/08/28 11:22:43;;;;;;;4.80;2.50;;;24.40;74.30;;;;;;5056592;28;20586;-1
2023/08/28 11:25:14;;;;;;;3.07;2.60;;;24.40;74.20;;;;;;5054984;28;20165;-1
2023/08/28 11:27:58;;;;;;;3.23;2.47;;;24.40;74.20;;;;;;5052464;28;20376;-1
2023/08/28 11:30:24;;;;;;;4.17;2.60;;;24.40;74.20;;;;;;5053244;28;20546;-1
2023/08/28 11:32:52;;;;;;;3.67;2.30;;;24.40;74.20;;;;;;5054231;28;20164;-1
2023/08/28 11:35:22;;;;;;;4.60;2.53;;;24.30;74.80;;;;;;5052750;28;20192;-1
2023/08/28 11:37:56;;;;;;;5.20;2.70;;;24.30;74.70;;;;;;5054292;28;20210;-1
2023/08/28 11:40:23;;;;;;;2.63;2.43;;;24.20;75.10;;;;;;5055102;28;20172;-1
2023/08/28 11:43:00;;;;;;;4.37;2.57;;;24.30;75.10;;;;;;5053484;28;20215;-1
2023/08/28 11:45:25;;;;;;;2.67;2.47;;;24.30;75.10;;;;;;5056077;28;20213;-1
2023/08/28 11:47:51;;;;;;;2.87;2.63;;;24.30;74.50;;;;;;5056272;28;20271;-1
2023/08/28 11:50:20;;;;;;;2.53;2.20;;;24.30;75.10;;;;;;5055983;28;20723;-1
2023/08/28 11:52:51;;;;;;;3.70;2.70;;;24.20;75.00;;;;;;5054773;28;20163;-1
2023/08/28 11:55:20;;;;;;;3.77;2.50;;;24.30;75.00;;;;;;5055453;28;20727;-1
2023/08/28 11:57:50;;;;;;;3.43;2.17;;;24.40;75.00;;;;;;5055818;28;20177;-1
2023/08/28 12:00:16;;;;;;;4.33;2.70;;;24.40;74.80;;;;;;5069392;28;20230;-1
2023/08/28 12:02:45;;;;;;;3.40;3.07;;;24.40;74.70;;;;;;5053900;28;20200;-1
2023/08/28 12:05:12;;;;;;;3.77;2.43;;;24.50;74.60;;;;;;5055783;28;20268;-1
2023/08/28 12:07:42;;;;;;;4.00;2.80;;;24.40;74.60;;;;;;5054878;28;20521;-1
2023/08/28 12:10:18;;;;;;;2.67;2.47;;;24.40;74.90;;;;;;5054370;28;20173;-1
2023/08/28 12:12:44;;;;;;;3.63;2.80;;;24.20;75.40;;;;;;5053102;28;20469;-1
2023/08/28 12:15:10;;;;;;;3.20;2.90;;;24.40;75.40;;;;;;5054283;28;20195;-1
2023/08/28 12:17:48;;;;;;;3.73;2.73;;;24.50;75.00;;;;;;5054707;28;20829;-1
2023/08/28 12:20:19;;;;;;;3.33;3.00;;;24.40;74.90;;;;;;5053045;28;20233;-1
2023/08/28 12:22:45;;;;;;;4.03;3.00;;;24.30;75.30;;;;;;5069805;28;20490;-1
2023/08/28 12:25:11;;;;;;;3.60;2.70;;;24.30;75.50;;;;;;5053942;28;20234;-1
2023/08/28 12:27:38;;;;;;;3.73;2.97;;;24.40;75.40;;;;;;5054913;28;20168;-1
2023/08/28 12:30:18;;;;;;;3.03;2.70;;;24.40;75.30;;;;;;5053217;28;20180;-1
2023/08/28 12:32:53;;;;;;;3.30;3.00;;;24.50;74.90;;;;;;5055454;28;20162;-1
2023/08/28 12:35:21;;;;;;;3.33;2.63;;;24.30;75.20;;;;;;5071382;28;20294;-1
2023/08/28 12:37:51;;;;;;;3.50;3.20;;;24.40;75.50;;;;;;5064730;28;20187;-1
2023/08/28 12:40:17;;;;;;;3.33;3.10;;;24.40;75.20;;;;;;5055570;28;20888;-1
2023/08/28 12:42:43;;;;;;;3.93;3.00;;;24.50;74.90;;;;;;5056414;28;20184;-1
2023/08/28 12:45:13;;;;;;;3.50;3.20;;;24.60;74.60;;;;;;5070535;28;20733;-1
2023/08/28 12:47:40;;;;;;;3.43;3.10;;;24.60;74.30;;;;;;5055189;28;20168;-1
2023/08/28 12:50:08;;;;;;;5.20;3.50;;;24.60;74.30;;;;;;5054597;28;20608;-1
2023/08/28 12:52:34;;;;;;;6.57;3.43;;;24.60;74.20;;;;;;5071039;28;20176;-1
2023/08/28 12:54:59;;;;;;;4.03;3.50;;;24.60;74.20;;;;;;5055493;28;20191;-1
2023/08/28 12:57:28;;;;;;;3.90;3.33;;;24.60;74.20;;;;;;5054248;28;20176;-1
2023/08/28 12:59:53;;;;;;;5.73;3.53;;;24.60;74.10;;;;;;5055310;28;20172;-1
2023/08/28 13:02:24;;;;;;;4.37;3.20;;;24.60;73.90;;;;;;5068788;28;20196;-1
2023/08/28 13:04:52;;;;;;;3.97;3.17;;;24.70;74.00;;;;;;5074107;28;20183;-1
2023/08/28 13:07:19;;;;;;;4.63;3.50;;;24.60;73.90;;;;;;5071968;28;20226;-1
2023/08/28 13:09:46;;;;;;;5.10;3.47;;;24.60;73.80;;;;;;5052979;28;20268;-1
2023/08/28 13:12:12;;;;;;;3.60;3.20;;;24.60;73.70;;;;;;5052029;28;20187;-1
2023/08/28 13:14:37;;;;;;;6.17;3.57;;;24.70;73.60;;;;;;5051092;28;20218;-1